sensor_id;sensor_type;location;lat;lon;timestamp;P1;durP1;ratioP1;P2;durP2;ratioP2
3311;SDS011;1668;49.648;8.570;2022-11-20T00:01:31;21.00;;;14.37;;
3311;SDS011;1668;49.648;8.570;2022-11-20T00:03:58;21.83;;;14.07;;
3311;SDS011;1668;49.648;8.570;2022-11-20T00:06:26;23.67;;;14.53;;
3311;SDS011;1668;49.648;8.570;2022-11-20T00:08:54;20.50;;;13.83;;
3311;SDS011;1668;49.648;8.570;2022-11-20T00:11:22;26.97;;;15.47;;
3311;SDS011;1668;49.648;8.570;2022-11-20T00:13:51;21.33;;;13.63;;
3311;SDS011;1668;49.648;8.570;2022-11-20T00:16:19;23.77;;;13.77;;
3311;SDS011;1668;49.648;8.570;2022-11-20T00:18:49;20.27;;;13.53;;
3311;SDS011;1668;49.648;8.570;2022-11-20T00:21:17;24.60;;;15.00;;
3311;SDS011;1668;49.648;8.570;2022-11-20T00:23:45;21.00;;;13.07;;
3311;SDS011;1668;49.648;8.570;2022-11-20T00:26:13;22.77;;;14.33;;
3311;SDS011;1668;49.648;8.570;2022-11-20T00:28:41;25.50;;;14.00;;
3311;SDS011;1668;49.648;8.570;2022-11-20T00:31:10;22.47;;;13.50;;
3311;SDS011;1668;49.648;8.570;2022-11-20T00:33:38;22.13;;;14.20;;
3311;SDS011;1668;49.648;8.570;2022-11-20T00:36:08;22.60;;;13.50;;
3311;SDS011;1668;49.648;8.570;2022-11-20T00:38:36;18.80;;;12.17;;
3311;SDS011;1668;49.648;8.570;2022-11-20T00:41:06;23.00;;;13.47;;
3311;SDS011;1668;49.648;8.570;2022-11-20T00:43:34;24.33;;;14.70;;
3311;SDS011;1668;49.648;8.570;2022-11-20T00:46:02;22.53;;;13.37;;
3311;SDS011;1668;49.648;8.570;2022-11-20T00:48:30;19.50;;;13.50;;
3311;SDS011;1668;49.648;8.570;2022-11-20T00:50:58;20.93;;;13.30;;
3311;SDS011;1668;49.648;8.570;2022-11-20T00:53:27;19.80;;;12.23;;
3311;SDS011;1668;49.648;8.570;2022-11-20T00:55:54;19.93;;;12.83;;
3311;SDS011;1668;49.648;8.570;2022-11-20T00:58:22;20.30;;;12.20;;
3311;SDS011;1668;49.648;8.570;2022-11-20T01:00:49;23.00;;;12.83;;
3311;SDS011;1668;49.648;8.570;2022-11-20T01:03:17;18.00;;;12.17;;
3311;SDS011;1668;49.648;8.570;2022-11-20T01:05:44;20.93;;;13.50;;
3311;SDS011;1668;49.648;8.570;2022-11-20T01:08:11;20.47;;;11.70;;
3311;SDS011;1668;49.648;8.570;2022-11-20T01:10:39;21.60;;;12.73;;
3311;SDS011;1668;49.648;8.570;2022-11-20T01:13:06;18.67;;;12.40;;
3311;SDS011;1668;49.648;8.570;2022-11-20T01:15:51;18.37;;;12.13;;
3311;SDS011;1668;49.648;8.570;2022-11-20T01:18:18;20.00;;;12.60;;
3311;SDS011;1668;49.648;8.570;2022-11-20T01:20:45;22.17;;;12.87;;
3311;SDS011;1668;49.648;8.570;2022-11-20T01:23:12;20.63;;;13.40;;
3311;SDS011;1668;49.648;8.570;2022-11-20T01:25:40;19.10;;;13.23;;
3311;SDS011;1668;49.648;8.570;2022-11-20T01:28:07;19.87;;;13.40;;
3311;SDS011;1668;49.648;8.570;2022-11-20T01:30:34;19.37;;;11.90;;
3311;SDS011;1668;49.648;8.570;2022-11-20T01:33:01;20.60;;;13.33;;
3311;SDS011;1668;49.648;8.570;2022-11-20T01:35:28;20.13;;;13.60;;
3311;SDS011;1668;49.648;8.570;2022-11-20T01:37:55;20.20;;;13.00;;
3311;SDS011;1668;49.648;8.570;2022-11-20T01:40:22;19.63;;;12.57;;
3311;SDS011;1668;49.648;8.570;2022-11-20T01:42:53;16.77;;;11.70;;
3311;SDS011;1668;49.648;8.570;2022-11-20T01:48:41;20.47;;;12.30;;
3311;SDS011;1668;49.648;8.570;2022-11-20T01:51:13;17.40;;;11.27;;
3311;SDS011;1668;49.648;8.570;2022-11-20T01:53:47;17.13;;;11.23;;
3311;SDS011;1668;49.648;8.570;2022-11-20T01:56:15;17.40;;;11.53;;
3311;SDS011;1668;49.648;8.570;2022-11-20T01:58:43;18.07;;;11.43;;
3311;SDS011;1668;49.648;8.570;2022-11-20T02:01:14;16.53;;;10.50;;
3311;SDS011;1668;49.648;8.570;2022-11-20T02:03:41;15.47;;;10.60;;
3311;SDS011;1668;49.648;8.570;2022-11-20T02:06:11;20.07;;;11.80;;
3311;SDS011;1668;49.648;8.570;2022-11-20T02:08:42;16.00;;;10.70;;
3311;SDS011;1668;49.648;8.570;2022-11-20T02:11:09;14.60;;;9.87;;
3311;SDS011;1668;49.648;8.570;2022-11-20T02:13:37;15.27;;;9.90;;
3311;SDS011;1668;49.648;8.570;2022-11-20T02:16:13;16.90;;;10.80;;
3311;SDS011;1668;49.648;8.570;2022-11-20T02:18:43;14.17;;;9.17;;
3311;SDS011;1668;49.648;8.570;2022-11-20T02:21:14;15.43;;;9.70;;
3311;SDS011;1668;49.648;8.570;2022-11-20T02:23:55;13.33;;;9.03;;
3311;SDS011;1668;49.648;8.570;2022-11-20T02:26:46;14.80;;;9.97;;
3311;SDS011;1668;49.648;8.570;2022-11-20T02:29:16;16.50;;;9.57;;
3311;SDS011;1668;49.648;8.570;2022-11-20T02:31:49;15.07;;;9.40;;
3311;SDS011;1668;49.648;8.570;2022-11-20T02:34:17;13.17;;;8.60;;
3311;SDS011;1668;49.648;8.570;2022-11-20T02:36:44;13.60;;;8.80;;
3311;SDS011;1668;49.648;8.570;2022-11-20T02:39:14;14.93;;;10.30;;
3311;SDS011;1668;49.648;8.570;2022-11-20T02:41:42;13.47;;;9.10;;
3311;SDS011;1668;49.648;8.570;2022-11-20T02:44:10;13.40;;;8.73;;
3311;SDS011;1668;49.648;8.570;2022-11-20T02:46:37;12.60;;;8.47;;
3311;SDS011;1668;49.648;8.570;2022-11-20T02:49:05;11.83;;;8.03;;
3311;SDS011;1668;49.648;8.570;2022-11-20T02:51:32;14.57;;;9.27;;
3311;SDS011;1668;49.648;8.570;2022-11-20T02:53:58;14.10;;;9.87;;
3311;SDS011;1668;49.648;8.570;2022-11-20T02:56:27;13.03;;;9.00;;
3311;SDS011;1668;49.648;8.570;2022-11-20T02:58:54;16.17;;;8.80;;
3311;SDS011;1668;49.648;8.570;2022-11-20T03:01:21;14.40;;;9.10;;
3311;SDS011;1668;49.648;8.570;2022-11-20T03:03:48;14.10;;;9.30;;
3311;SDS011;1668;49.648;8.570;2022-11-20T03:06:15;13.40;;;9.00;;
3311;SDS011;1668;49.648;8.570;2022-11-20T03:08:42;14.13;;;9.00;;
3311;SDS011;1668;49.648;8.570;2022-11-20T03:11:09;13.40;;;9.43;;
3311;SDS011;1668;49.648;8.570;2022-11-20T03:13:38;13.47;;;9.00;;
3311;SDS011;1668;49.648;8.570;2022-11-20T03:16:06;13.03;;;8.77;;
3311;SDS011;1668;49.648;8.570;2022-11-20T03:18:34;14.03;;;8.83;;
3311;SDS011;1668;49.648;8.570;2022-11-20T03:21:01;12.17;;;8.93;;
3311;SDS011;1668;49.648;8.570;2022-11-20T03:23:29;15.73;;;9.70;;
3311;SDS011;1668;49.648;8.570;2022-11-20T03:26:06;14.53;;;9.50;;
3311;SDS011;1668;49.648;8.570;2022-11-20T03:28:38;14.70;;;9.40;;
3311;SDS011;1668;49.648;8.570;2022-11-20T03:31:06;13.30;;;8.87;;
3311;SDS011;1668;49.648;8.570;2022-11-20T03:33:35;14.50;;;9.20;;
3311;SDS011;1668;49.648;8.570;2022-11-20T03:36:02;18.60;;;9.00;;
3311;SDS011;1668;49.648;8.570;2022-11-20T03:38:30;12.87;;;8.93;;
3311;SDS011;1668;49.648;8.570;2022-11-20T03:41:00;11.90;;;7.90;;
3311;SDS011;1668;49.648;8.570;2022-11-20T03:43:28;12.40;;;8.10;;
3311;SDS011;1668;49.648;8.570;2022-11-20T03:45:57;12.20;;;8.50;;
3311;SDS011;1668;49.648;8.570;2022-11-20T03:48:24;13.10;;;8.40;;
3311;SDS011;1668;49.648;8.570;2022-11-20T03:50:51;11.60;;;8.40;;
3311;SDS011;1668;49.648;8.570;2022-11-20T03:53:18;12.20;;;7.80;;
3311;SDS011;1668;49.648;8.570;2022-11-20T03:55:50;13.07;;;8.73;;
3311;SDS011;1668;49.648;8.570;2022-11-20T03:58:17;12.80;;;8.13;;
3311;SDS011;1668;49.648;8.570;2022-11-20T04:00:44;14.37;;;9.30;;
3311;SDS011;1668;49.648;8.570;2022-11-20T04:03:12;14.53;;;8.77;;
3311;SDS011;1668;49.648;8.570;2022-11-20T04:05:39;14.00;;;9.43;;
3311;SDS011;1668;49.648;8.570;2022-11-20T04:08:06;10.40;;;7.43;;
3311;SDS011;1668;49.648;8.570;2022-11-20T04:10:33;13.37;;;9.07;;
3311;SDS011;1668;49.648;8.570;2022-11-20T04:13:00;13.20;;;8.53;;
3311;SDS011;1668;49.648;8.570;2022-11-20T04:15:27;15.10;;;9.70;;
3311;SDS011;1668;49.648;8.570;2022-11-20T04:17:54;14.53;;;10.03;;
3311;SDS011;1668;49.648;8.570;2022-11-20T04:20:22;15.50;;;9.83;;
3311;SDS011;1668;49.648;8.570;2022-11-20T04:22:49;12.33;;;8.77;;
3311;SDS011;1668;49.648;8.570;2022-11-20T04:25:19;13.43;;;9.10;;
3311;SDS011;1668;49.648;8.570;2022-11-20T04:27:46;12.17;;;8.07;;
3311;SDS011;1668;49.648;8.570;2022-11-20T04:30:13;14.20;;;8.73;;
3311;SDS011;1668;49.648;8.570;2022-11-20T04:32:40;12.80;;;8.80;;
3311;SDS011;1668;49.648;8.570;2022-11-20T04:35:07;13.80;;;8.70;;
3311;SDS011;1668;49.648;8.570;2022-11-20T04:37:36;16.90;;;10.47;;
3311;SDS011;1668;49.648;8.570;2022-11-20T04:40:03;15.63;;;10.13;;
3311;SDS011;1668;49.648;8.570;2022-11-20T04:42:30;15.27;;;10.10;;
3311;SDS011;1668;49.648;8.570;2022-11-20T04:44:57;18.13;;;11.53;;
3311;SDS011;1668;49.648;8.570;2022-11-20T04:47:24;15.00;;;10.00;;
3311;SDS011;1668;49.648;8.570;2022-11-20T04:49:51;16.53;;;10.13;;
3311;SDS011;1668;49.648;8.570;2022-11-20T04:52:18;18.57;;;11.10;;
3311;SDS011;1668;49.648;8.570;2022-11-20T04:54:46;17.97;;;11.27;;
3311;SDS011;1668;49.648;8.570;2022-11-20T04:57:14;16.93;;;10.10;;
3311;SDS011;1668;49.648;8.570;2022-11-20T04:59:41;16.47;;;9.60;;
3311;SDS011;1668;49.648;8.570;2022-11-20T05:02:08;15.47;;;9.77;;
3311;SDS011;1668;49.648;8.570;2022-11-20T05:04:36;15.30;;;10.23;;
3311;SDS011;1668;49.648;8.570;2022-11-20T05:07:02;16.53;;;10.53;;
3311;SDS011;1668;49.648;8.570;2022-11-20T05:09:29;16.57;;;10.03;;
3311;SDS011;1668;49.648;8.570;2022-11-20T05:11:58;16.13;;;10.50;;
3311;SDS011;1668;49.648;8.570;2022-11-20T05:14:25;15.90;;;10.00;;
3311;SDS011;1668;49.648;8.570;2022-11-20T05:16:52;15.17;;;9.67;;
3311;SDS011;1668;49.648;8.570;2022-11-20T05:19:18;17.03;;;10.87;;
3311;SDS011;1668;49.648;8.570;2022-11-20T05:21:45;14.07;;;9.93;;
3311;SDS011;1668;49.648;8.570;2022-11-20T05:24:12;12.47;;;8.47;;
3311;SDS011;1668;49.648;8.570;2022-11-20T05:26:39;16.33;;;10.13;;
3311;SDS011;1668;49.648;8.570;2022-11-20T05:29:09;15.10;;;10.13;;
3311;SDS011;1668;49.648;8.570;2022-11-20T05:31:36;14.90;;;9.87;;
3311;SDS011;1668;49.648;8.570;2022-11-20T05:34:05;15.50;;;9.90;;
3311;SDS011;1668;49.648;8.570;2022-11-20T05:36:32;18.20;;;10.47;;
3311;SDS011;1668;49.648;8.570;2022-11-20T05:38:59;16.23;;;10.30;;
3311;SDS011;1668;49.648;8.570;2022-11-20T05:41:26;16.00;;;10.57;;
3311;SDS011;1668;49.648;8.570;2022-11-20T05:43:53;13.93;;;9.40;;
3311;SDS011;1668;49.648;8.570;2022-11-20T05:46:23;16.17;;;9.80;;
3311;SDS011;1668;49.648;8.570;2022-11-20T05:48:50;14.33;;;9.30;;
3311;SDS011;1668;49.648;8.570;2022-11-20T05:51:17;14.43;;;9.70;;
3311;SDS011;1668;49.648;8.570;2022-11-20T05:53:45;18.20;;;11.00;;
3311;SDS011;1668;49.648;8.570;2022-11-20T05:56:13;18.60;;;10.90;;
3311;SDS011;1668;49.648;8.570;2022-11-20T05:58:41;17.57;;;10.00;;
3311;SDS011;1668;49.648;8.570;2022-11-20T06:01:08;17.80;;;10.90;;
3311;SDS011;1668;49.648;8.570;2022-11-20T06:03:39;17.57;;;10.93;;
3311;SDS011;1668;49.648;8.570;2022-11-20T06:06:07;17.73;;;10.43;;
3311;SDS011;1668;49.648;8.570;2022-11-20T06:08:34;14.57;;;8.97;;
3311;SDS011;1668;49.648;8.570;2022-11-20T06:11:04;14.70;;;10.03;;
3311;SDS011;1668;49.648;8.570;2022-11-20T06:13:32;16.60;;;10.80;;
3311;SDS011;1668;49.648;8.570;2022-11-20T06:15:59;16.60;;;10.40;;
3311;SDS011;1668;49.648;8.570;2022-11-20T06:18:26;17.40;;;11.43;;
3311;SDS011;1668;49.648;8.570;2022-11-20T06:21:03;18.53;;;11.50;;
3311;SDS011;1668;49.648;8.570;2022-11-20T06:23:31;16.77;;;10.03;;
3311;SDS011;1668;49.648;8.570;2022-11-20T06:26:00;18.87;;;11.50;;
3311;SDS011;1668;49.648;8.570;2022-11-20T06:28:28;21.27;;;12.13;;
3311;SDS011;1668;49.648;8.570;2022-11-20T06:30:55;19.23;;;11.23;;
3311;SDS011;1668;49.648;8.570;2022-11-20T06:33:21;19.20;;;10.60;;
3311;SDS011;1668;49.648;8.570;2022-11-20T06:35:48;22.77;;;12.00;;
3311;SDS011;1668;49.648;8.570;2022-11-20T06:38:16;18.40;;;11.37;;
3311;SDS011;1668;49.648;8.570;2022-11-20T06:40:43;18.50;;;12.23;;
3311;SDS011;1668;49.648;8.570;2022-11-20T06:43:10;18.73;;;11.50;;
3311;SDS011;1668;49.648;8.570;2022-11-20T06:45:37;16.73;;;10.93;;
3311;SDS011;1668;49.648;8.570;2022-11-20T06:48:05;18.37;;;11.37;;
3311;SDS011;1668;49.648;8.570;2022-11-20T06:50:32;21.83;;;13.57;;
3311;SDS011;1668;49.648;8.570;2022-11-20T06:53:00;19.97;;;12.70;;
3311;SDS011;1668;49.648;8.570;2022-11-20T06:55:29;18.70;;;11.47;;
3311;SDS011;1668;49.648;8.570;2022-11-20T06:57:57;21.33;;;12.27;;
3311;SDS011;1668;49.648;8.570;2022-11-20T07:00:24;20.93;;;12.63;;
3311;SDS011;1668;49.648;8.570;2022-11-20T07:02:51;21.30;;;11.73;;
3311;SDS011;1668;49.648;8.570;2022-11-20T07:05:18;20.00;;;11.57;;
3311;SDS011;1668;49.648;8.570;2022-11-20T07:07:46;23.33;;;12.90;;
3311;SDS011;1668;49.648;8.570;2022-11-20T07:10:13;20.10;;;11.80;;
3311;SDS011;1668;49.648;8.570;2022-11-20T07:12:41;21.10;;;12.73;;
3311;SDS011;1668;49.648;8.570;2022-11-20T07:15:08;21.67;;;12.13;;
3311;SDS011;1668;49.648;8.570;2022-11-20T07:17:35;21.43;;;12.33;;
3311;SDS011;1668;49.648;8.570;2022-11-20T07:20:02;20.00;;;11.80;;
3311;SDS011;1668;49.648;8.570;2022-11-20T07:22:30;22.30;;;12.20;;
3311;SDS011;1668;49.648;8.570;2022-11-20T07:24:57;19.70;;;11.20;;
3311;SDS011;1668;49.648;8.570;2022-11-20T07:27:24;19.67;;;11.03;;
3311;SDS011;1668;49.648;8.570;2022-11-20T07:29:52;20.33;;;12.17;;
3311;SDS011;1668;49.648;8.570;2022-11-20T07:32:19;21.67;;;13.20;;
3311;SDS011;1668;49.648;8.570;2022-11-20T07:34:45;19.30;;;11.27;;
3311;SDS011;1668;49.648;8.570;2022-11-20T07:37:12;19.37;;;12.30;;
3311;SDS011;1668;49.648;8.570;2022-11-20T07:39:39;20.80;;;11.90;;
3311;SDS011;1668;49.648;8.570;2022-11-20T07:42:07;20.90;;;11.93;;
3311;SDS011;1668;49.648;8.570;2022-11-20T07:44:34;20.73;;;13.23;;
3311;SDS011;1668;49.648;8.570;2022-11-20T07:47:02;21.53;;;13.40;;
3311;SDS011;1668;49.648;8.570;2022-11-20T07:49:29;19.80;;;13.43;;
3311;SDS011;1668;49.648;8.570;2022-11-20T07:51:56;21.97;;;13.13;;
3311;SDS011;1668;49.648;8.570;2022-11-20T07:54:23;24.17;;;13.77;;
3311;SDS011;1668;49.648;8.570;2022-11-20T07:56:50;22.43;;;13.83;;
3311;SDS011;1668;49.648;8.570;2022-11-20T07:59:17;24.57;;;13.93;;
3311;SDS011;1668;49.648;8.570;2022-11-20T08:01:44;23.40;;;13.23;;
3311;SDS011;1668;49.648;8.570;2022-11-20T08:04:12;25.40;;;14.77;;
3311;SDS011;1668;49.648;8.570;2022-11-20T08:06:41;23.97;;;13.70;;
3311;SDS011;1668;49.648;8.570;2022-11-20T08:09:08;25.10;;;14.97;;
3311;SDS011;1668;49.648;8.570;2022-11-20T08:11:35;23.77;;;14.27;;
3311;SDS011;1668;49.648;8.570;2022-11-20T08:14:19;23.93;;;13.27;;
3311;SDS011;1668;49.648;8.570;2022-11-20T08:16:47;23.03;;;14.30;;
3311;SDS011;1668;49.648;8.570;2022-11-20T08:19:17;24.67;;;13.70;;
3311;SDS011;1668;49.648;8.570;2022-11-20T08:21:44;23.13;;;13.90;;
3311;SDS011;1668;49.648;8.570;2022-11-20T08:24:11;25.17;;;13.80;;
3311;SDS011;1668;49.648;8.570;2022-11-20T08:26:39;21.23;;;12.77;;
3311;SDS011;1668;49.648;8.570;2022-11-20T08:29:07;20.33;;;12.40;;
3311;SDS011;1668;49.648;8.570;2022-11-20T08:31:33;19.00;;;11.90;;
3311;SDS011;1668;49.648;8.570;2022-11-20T08:34:01;21.13;;;11.83;;
3311;SDS011;1668;49.648;8.570;2022-11-20T08:36:32;22.63;;;12.30;;
3311;SDS011;1668;49.648;8.570;2022-11-20T08:38:59;21.90;;;13.13;;
3311;SDS011;1668;49.648;8.570;2022-11-20T08:41:26;21.17;;;13.80;;
3311;SDS011;1668;49.648;8.570;2022-11-20T08:43:54;25.67;;;15.33;;
3311;SDS011;1668;49.648;8.570;2022-11-20T08:46:22;27.47;;;15.97;;
3311;SDS011;1668;49.648;8.570;2022-11-20T08:48:50;29.77;;;15.80;;
3311;SDS011;1668;49.648;8.570;2022-11-20T08:51:16;30.63;;;17.33;;
3311;SDS011;1668;49.648;8.570;2022-11-20T08:53:45;27.50;;;16.57;;
3311;SDS011;1668;49.648;8.570;2022-11-20T08:56:13;25.90;;;15.63;;
3311;SDS011;1668;49.648;8.570;2022-11-20T08:58:40;24.53;;;15.03;;
3311;SDS011;1668;49.648;8.570;2022-11-20T09:01:07;30.90;;;17.43;;
3311;SDS011;1668;49.648;8.570;2022-11-20T09:03:34;28.27;;;17.07;;
3311;SDS011;1668;49.648;8.570;2022-11-20T09:06:01;28.23;;;16.00;;
3311;SDS011;1668;49.648;8.570;2022-11-20T09:08:30;29.07;;;18.13;;
3311;SDS011;1668;49.648;8.570;2022-11-20T09:10:59;32.53;;;18.97;;
3311;SDS011;1668;49.648;8.570;2022-11-20T09:13:26;28.67;;;17.77;;
3311;SDS011;1668;49.648;8.570;2022-11-20T09:15:56;28.93;;;18.23;;
3311;SDS011;1668;49.648;8.570;2022-11-20T09:18:24;30.73;;;17.03;;
3311;SDS011;1668;49.648;8.570;2022-11-20T09:20:55;27.77;;;16.60;;
3311;SDS011;1668;49.648;8.570;2022-11-20T09:23:22;28.90;;;17.47;;
3311;SDS011;1668;49.648;8.570;2022-11-20T09:25:50;27.50;;;16.37;;
3311;SDS011;1668;49.648;8.570;2022-11-20T09:28:19;31.20;;;17.70;;
3311;SDS011;1668;49.648;8.570;2022-11-20T09:30:45;28.13;;;16.80;;
3311;SDS011;1668;49.648;8.570;2022-11-20T09:33:12;27.60;;;16.00;;
3311;SDS011;1668;49.648;8.570;2022-11-20T09:35:39;27.60;;;16.60;;
3311;SDS011;1668;49.648;8.570;2022-11-20T09:38:06;28.37;;;16.27;;
3311;SDS011;1668;49.648;8.570;2022-11-20T09:40:34;30.93;;;16.27;;
3311;SDS011;1668;49.648;8.570;2022-11-20T09:43:05;27.93;;;15.40;;
3311;SDS011;1668;49.648;8.570;2022-11-20T09:45:47;27.50;;;14.90;;
3311;SDS011;1668;49.648;8.570;2022-11-20T09:48:48;26.83;;;15.53;;
3311;SDS011;1668;49.648;8.570;2022-11-20T09:51:30;29.83;;;17.57;;
3311;SDS011;1668;49.648;8.570;2022-11-20T09:54:10;26.53;;;15.83;;
3311;SDS011;1668;49.648;8.570;2022-11-20T09:56:42;29.70;;;16.47;;
3311;SDS011;1668;49.648;8.570;2022-11-20T09:59:15;28.20;;;15.47;;
3311;SDS011;1668;49.648;8.570;2022-11-20T10:01:55;24.60;;;14.50;;
3311;SDS011;1668;49.648;8.570;2022-11-20T10:04:22;28.20;;;16.33;;
3311;SDS011;1668;49.648;8.570;2022-11-20T10:06:52;27.67;;;15.83;;
3311;SDS011;1668;49.648;8.570;2022-11-20T10:09:27;30.20;;;16.60;;
3311;SDS011;1668;49.648;8.570;2022-11-20T10:12:01;26.70;;;15.77;;
3311;SDS011;1668;49.648;8.570;2022-11-20T10:14:41;28.43;;;16.73;;
3311;SDS011;1668;49.648;8.570;2022-11-20T10:17:22;26.97;;;15.77;;
3311;SDS011;1668;49.648;8.570;2022-11-20T10:20:02;26.20;;;14.17;;
3311;SDS011;1668;49.648;8.570;2022-11-20T10:22:46;24.80;;;15.40;;
3311;SDS011;1668;49.648;8.570;2022-11-20T10:25:20;25.50;;;15.70;;
3311;SDS011;1668;49.648;8.570;2022-11-20T10:30:56;26.43;;;15.10;;
3311;SDS011;1668;49.648;8.570;2022-11-20T10:33:31;29.33;;;16.60;;
3311;SDS011;1668;49.648;8.570;2022-11-20T10:36:05;25.10;;;14.70;;
3311;SDS011;1668;49.648;8.570;2022-11-20T10:38:39;27.53;;;15.20;;
3311;SDS011;1668;49.648;8.570;2022-11-20T10:41:10;27.90;;;15.97;;
3311;SDS011;1668;49.648;8.570;2022-11-20T10:43:56;29.50;;;16.00;;
3311;SDS011;1668;49.648;8.570;2022-11-20T10:46:34;27.67;;;15.63;;
3311;SDS011;1668;49.648;8.570;2022-11-20T10:49:11;26.27;;;15.60;;
3311;SDS011;1668;49.648;8.570;2022-11-20T10:51:43;22.83;;;15.17;;
3311;SDS011;1668;49.648;8.570;2022-11-20T10:54:22;24.23;;;14.23;;
3311;SDS011;1668;49.648;8.570;2022-11-20T10:57:00;23.40;;;13.57;;
3311;SDS011;1668;49.648;8.570;2022-11-20T10:59:47;24.07;;;14.37;;
3311;SDS011;1668;49.648;8.570;2022-11-20T11:02:35;24.43;;;13.93;;
3311;SDS011;1668;49.648;8.570;2022-11-20T11:05:18;25.70;;;15.17;;
3311;SDS011;1668;49.648;8.570;2022-11-20T11:07:50;27.43;;;14.30;;
3311;SDS011;1668;49.648;8.570;2022-11-20T11:10:21;24.60;;;14.50;;
3311;SDS011;1668;49.648;8.570;2022-11-20T11:12:52;23.50;;;13.63;;
3311;SDS011;1668;49.648;8.570;2022-11-20T11:15:24;22.60;;;13.40;;
3311;SDS011;1668;49.648;8.570;2022-11-20T11:17:53;24.90;;;14.13;;
3311;SDS011;1668;49.648;8.570;2022-11-20T11:20:21;22.17;;;13.10;;
3311;SDS011;1668;49.648;8.570;2022-11-20T11:22:50;25.17;;;15.30;;
3311;SDS011;1668;49.648;8.570;2022-11-20T11:25:18;24.13;;;13.90;;
3311;SDS011;1668;49.648;8.570;2022-11-20T11:27:49;21.90;;;13.73;;
3311;SDS011;1668;49.648;8.570;2022-11-20T11:30:17;23.30;;;14.00;;
3311;SDS011;1668;49.648;8.570;2022-11-20T11:32:45;27.30;;;15.80;;
3311;SDS011;1668;49.648;8.570;2022-11-20T11:35:20;26.37;;;14.47;;
3311;SDS011;1668;49.648;8.570;2022-11-20T11:37:50;26.90;;;15.07;;
3311;SDS011;1668;49.648;8.570;2022-11-20T11:40:20;20.73;;;12.43;;
3311;SDS011;1668;49.648;8.570;2022-11-20T11:42:53;23.87;;;13.90;;
3311;SDS011;1668;49.648;8.570;2022-11-20T11:45:22;25.70;;;14.90;;
3311;SDS011;1668;49.648;8.570;2022-11-20T11:47:49;21.17;;;13.43;;
3311;SDS011;1668;49.648;8.570;2022-11-20T11:50:19;22.70;;;13.53;;
3311;SDS011;1668;49.648;8.570;2022-11-20T11:52:50;23.30;;;13.10;;
3311;SDS011;1668;49.648;8.570;2022-11-20T11:55:28;24.07;;;14.50;;
3311;SDS011;1668;49.648;8.570;2022-11-20T11:58:02;23.67;;;13.93;;
3311;SDS011;1668;49.648;8.570;2022-11-20T12:00:45;23.93;;;12.90;;
3311;SDS011;1668;49.648;8.570;2022-11-20T12:03:18;25.77;;;14.20;;
3311;SDS011;1668;49.648;8.570;2022-11-20T12:05:49;20.10;;;11.87;;
3311;SDS011;1668;49.648;8.570;2022-11-20T12:08:25;26.20;;;14.93;;
3311;SDS011;1668;49.648;8.570;2022-11-20T12:10:57;22.53;;;13.93;;
3311;SDS011;1668;49.648;8.570;2022-11-20T12:13:39;23.27;;;13.10;;
3311;SDS011;1668;49.648;8.570;2022-11-20T12:16:11;22.30;;;13.83;;
3311;SDS011;1668;49.648;8.570;2022-11-20T12:18:40;22.00;;;13.43;;
3311;SDS011;1668;49.648;8.570;2022-11-20T12:21:17;26.47;;;15.80;;
3311;SDS011;1668;49.648;8.570;2022-11-20T12:24:02;26.87;;;16.10;;
3311;SDS011;1668;49.648;8.570;2022-11-20T12:26:49;23.77;;;14.37;;
3311;SDS011;1668;49.648;8.570;2022-11-20T12:29:31;31.07;;;18.70;;
3311;SDS011;1668;49.648;8.570;2022-11-20T12:32:20;28.77;;;15.80;;
3311;SDS011;1668;49.648;8.570;2022-11-20T12:35:22;28.07;;;16.00;;
3311;SDS011;1668;49.648;8.570;2022-11-20T12:38:02;28.27;;;16.77;;
3311;SDS011;1668;49.648;8.570;2022-11-20T12:40:43;29.03;;;15.90;;
3311;SDS011;1668;49.648;8.570;2022-11-20T12:43:16;30.37;;;16.57;;
3311;SDS011;1668;49.648;8.570;2022-11-20T12:46:08;32.97;;;17.47;;
3311;SDS011;1668;49.648;8.570;2022-11-20T12:48:51;27.43;;;15.90;;
3311;SDS011;1668;49.648;8.570;2022-11-20T12:51:39;28.03;;;16.10;;
3311;SDS011;1668;49.648;8.570;2022-11-20T12:57:29;32.30;;;16.77;;
3311;SDS011;1668;49.648;8.570;2022-11-20T13:00:10;43.13;;;24.87;;
3311;SDS011;1668;49.648;8.570;2022-11-20T13:02:44;33.50;;;20.47;;
3311;SDS011;1668;49.648;8.570;2022-11-20T13:05:35;26.63;;;15.70;;
3311;SDS011;1668;49.648;8.570;2022-11-20T13:08:07;29.60;;;17.23;;
3311;SDS011;1668;49.648;8.570;2022-11-20T13:10:45;28.27;;;15.13;;
3311;SDS011;1668;49.648;8.570;2022-11-20T13:13:18;25.63;;;14.87;;
3311;SDS011;1668;49.648;8.570;2022-11-20T13:15:51;28.77;;;16.03;;
3311;SDS011;1668;49.648;8.570;2022-11-20T13:18:23;27.57;;;15.17;;
3311;SDS011;1668;49.648;8.570;2022-11-20T13:20:51;23.70;;;13.83;;
3311;SDS011;1668;49.648;8.570;2022-11-20T13:23:25;24.43;;;14.07;;
3311;SDS011;1668;49.648;8.570;2022-11-20T13:26:02;21.93;;;13.13;;
3311;SDS011;1668;49.648;8.570;2022-11-20T13:28:41;25.17;;;14.90;;
3311;SDS011;1668;49.648;8.570;2022-11-20T13:31:09;22.00;;;13.23;;
3311;SDS011;1668;49.648;8.570;2022-11-20T13:33:50;22.47;;;14.13;;
3311;SDS011;1668;49.648;8.570;2022-11-20T13:36:21;23.33;;;13.13;;
3311;SDS011;1668;49.648;8.570;2022-11-20T13:38:51;22.43;;;12.97;;
3311;SDS011;1668;49.648;8.570;2022-11-20T13:41:23;28.90;;;17.37;;
3311;SDS011;1668;49.648;8.570;2022-11-20T13:44:04;35.00;;;18.23;;
3311;SDS011;1668;49.648;8.570;2022-11-20T13:46:37;29.17;;;17.53;;
3311;SDS011;1668;49.648;8.570;2022-11-20T13:49:09;28.93;;;15.70;;
3311;SDS011;1668;49.648;8.570;2022-11-20T13:51:48;26.77;;;15.73;;
3311;SDS011;1668;49.648;8.570;2022-11-20T13:54:22;25.70;;;14.77;;
3311;SDS011;1668;49.648;8.570;2022-11-20T13:57:07;24.73;;;14.87;;
3311;SDS011;1668;49.648;8.570;2022-11-20T13:59:49;21.90;;;13.40;;
3311;SDS011;1668;49.648;8.570;2022-11-20T14:02:23;27.50;;;14.30;;
3311;SDS011;1668;49.648;8.570;2022-11-20T14:04:54;26.53;;;13.70;;
3311;SDS011;1668;49.648;8.570;2022-11-20T14:07:25;23.37;;;13.57;;
3311;SDS011;1668;49.648;8.570;2022-11-20T14:10:01;23.37;;;14.23;;
3311;SDS011;1668;49.648;8.570;2022-11-20T14:12:28;24.67;;;14.50;;
3311;SDS011;1668;49.648;8.570;2022-11-20T14:14:58;23.40;;;13.77;;
3311;SDS011;1668;49.648;8.570;2022-11-20T14:17:30;29.40;;;16.17;;
3311;SDS011;1668;49.648;8.570;2022-11-20T14:19:58;26.23;;;14.93;;
3311;SDS011;1668;49.648;8.570;2022-11-20T14:22:28;25.30;;;15.07;;
3311;SDS011;1668;49.648;8.570;2022-11-20T14:25:02;24.50;;;15.00;;
3311;SDS011;1668;49.648;8.570;2022-11-20T14:27:32;27.67;;;16.40;;
3311;SDS011;1668;49.648;8.570;2022-11-20T14:30:03;22.97;;;15.43;;
3311;SDS011;1668;49.648;8.570;2022-11-20T14:32:31;30.20;;;16.93;;
3311;SDS011;1668;49.648;8.570;2022-11-20T14:35:02;30.87;;;15.93;;
3311;SDS011;1668;49.648;8.570;2022-11-20T14:37:36;25.70;;;14.10;;
3311;SDS011;1668;49.648;8.570;2022-11-20T14:40:21;30.23;;;17.00;;
3311;SDS011;1668;49.648;8.570;2022-11-20T14:42:51;24.63;;;14.77;;
3311;SDS011;1668;49.648;8.570;2022-11-20T14:45:21;24.07;;;15.87;;
3311;SDS011;1668;49.648;8.570;2022-11-20T14:47:55;26.90;;;15.50;;
3311;SDS011;1668;49.648;8.570;2022-11-20T14:50:26;26.10;;;16.00;;
3311;SDS011;1668;49.648;8.570;2022-11-20T14:52:56;23.07;;;13.30;;
3311;SDS011;1668;49.648;8.570;2022-11-20T14:55:27;22.97;;;13.70;;
3311;SDS011;1668;49.648;8.570;2022-11-20T14:57:56;20.97;;;14.07;;
3311;SDS011;1668;49.648;8.570;2022-11-20T15:00:27;21.77;;;13.17;;
3311;SDS011;1668;49.648;8.570;2022-11-20T15:02:55;20.70;;;13.17;;
3311;SDS011;1668;49.648;8.570;2022-11-20T15:05:23;25.07;;;14.17;;
3311;SDS011;1668;49.648;8.570;2022-11-20T15:08:05;24.33;;;15.10;;
3311;SDS011;1668;49.648;8.570;2022-11-20T15:10:33;30.40;;;16.67;;
3311;SDS011;1668;49.648;8.570;2022-11-20T15:13:02;27.63;;;17.17;;
3311;SDS011;1668;49.648;8.570;2022-11-20T15:15:33;29.80;;;16.67;;
3311;SDS011;1668;49.648;8.570;2022-11-20T15:18:05;25.90;;;14.60;;
3311;SDS011;1668;49.648;8.570;2022-11-20T15:20:38;24.43;;;14.40;;